createdAt,value
2018-11-22T00:00:19.416Z,0.00
2018-11-22T00:01:19.287Z,0.00
2018-11-22T00:02:19.153Z,0.00
2018-11-22T00:03:19.024Z,0.00
2018-11-22T00:04:18.891Z,0.00
2018-11-22T00:05:18.760Z,0.00
2018-11-22T00:06:18.634Z,0.00
2018-11-22T00:07:18.496Z,0.00
2018-11-22T00:08:18.364Z,0.00
2018-11-22T00:09:18.234Z,0.00
2018-11-22T00:10:18.104Z,0.00
2018-11-22T00:11:17.971Z,0.00
2018-11-22T00:12:17.841Z,0.00
2018-11-22T00:13:17.708Z,0.00
2018-11-22T00:14:17.576Z,0.00
2018-11-22T00:15:17.451Z,0.00
2018-11-22T00:16:17.314Z,0.00
2018-11-22T00:17:17.181Z,0.00
2018-11-22T00:18:17.055Z,0.00
2018-11-22T00:19:16.923Z,0.00
2018-11-22T00:20:16.788Z,0.00
2018-11-22T00:21:16.656Z,0.00
2018-11-22T00:22:16.526Z,0.00
2018-11-22T00:23:16.393Z,0.00
2018-11-22T00:24:16.263Z,0.00
2018-11-22T00:25:16.129Z,0.00
2018-11-22T00:26:15.999Z,0.00
2018-11-22T00:27:15.865Z,0.00
2018-11-22T00:28:15.735Z,0.00
2018-11-22T00:29:15.605Z,0.00
2018-11-22T00:30:15.472Z,0.00
2018-11-22T00:31:15.344Z,0.00
2018-11-22T00:32:15.206Z,0.00
2018-11-22T00:33:15.077Z,0.00
2018-11-22T00:34:14.945Z,0.00
2018-11-22T00:35:14.813Z,0.00
2018-11-22T00:36:14.682Z,0.00
2018-11-22T00:37:14.550Z,0.00
2018-11-22T00:38:14.418Z,0.00
2018-11-22T00:39:14.287Z,0.00
2018-11-22T00:40:14.156Z,0.00
2018-11-22T00:41:14.023Z,0.00
2018-11-22T00:42:13.895Z,0.00
2018-11-22T00:43:13.762Z,0.00
2018-11-22T00:44:13.628Z,0.00
2018-11-22T00:45:13.495Z,0.00
2018-11-22T00:46:13.369Z,0.00
2018-11-22T00:47:13.232Z,0.00
2018-11-22T00:48:13.099Z,0.00
2018-11-22T00:49:12.970Z,0.00
2018-11-22T00:50:12.840Z,0.00
2018-11-22T00:51:12.707Z,0.00
2018-11-22T00:52:12.572Z,0.00
2018-11-22T00:53:12.442Z,0.00
2018-11-22T00:54:12.311Z,0.00
2018-11-22T00:55:12.181Z,0.00
2018-11-22T00:56:12.049Z,0.00
2018-11-22T00:57:11.916Z,0.00
2018-11-22T00:58:11.787Z,0.00
2018-11-22T00:59:11.652Z,0.00
2018-11-22T01:00:11.520Z,0.00
2018-11-22T01:01:11.391Z,0.00
2018-11-22T01:02:11.257Z,0.00
2018-11-22T01:03:11.128Z,0.00
2018-11-22T01:04:10.994Z,0.00
2018-11-22T01:05:10.863Z,0.00
2018-11-22T01:06:10.732Z,0.00
2018-11-22T01:07:10.600Z,0.00
2018-11-22T01:08:10.466Z,0.00
2018-11-22T01:09:10.337Z,0.00
2018-11-22T01:10:10.207Z,0.00
2018-11-22T01:11:10.075Z,0.00
2018-11-22T01:12:09.941Z,0.00
2018-11-22T01:13:09.811Z,0.00
2018-11-22T01:14:09.679Z,0.00
2018-11-22T01:15:09.547Z,0.00
2018-11-22T01:16:09.416Z,0.00
2018-11-22T01:17:09.284Z,0.00
2018-11-22T01:18:09.153Z,0.00
2018-11-22T01:19:09.026Z,0.00
2018-11-22T01:20:08.891Z,0.00
2018-11-22T01:21:08.758Z,0.00
2018-11-22T01:22:08.625Z,0.00
2018-11-22T01:23:08.495Z,0.00
2018-11-22T01:24:08.363Z,0.00
2018-11-22T01:25:08.231Z,0.00
2018-11-22T01:26:08.102Z,0.00
2018-11-22T01:27:07.969Z,0.00
2018-11-22T01:28:07.836Z,0.00
2018-11-22T01:29:07.704Z,0.00
2018-11-22T01:30:07.574Z,0.00
2018-11-22T01:31:07.441Z,0.00
2018-11-22T01:32:07.312Z,0.00
2018-11-22T01:33:07.180Z,0.00
2018-11-22T01:34:07.047Z,0.00
2018-11-22T01:35:06.920Z,0.00
2018-11-22T01:36:06.784Z,0.00
2018-11-22T01:37:06.653Z,0.00
2018-11-22T01:38:08.156Z,0.00
2018-11-22T01:39:06.391Z,0.00
2018-11-22T01:40:06.256Z,0.00
2018-11-22T01:41:06.127Z,0.00
2018-11-22T01:42:05.996Z,0.00
2018-11-22T01:43:05.865Z,0.00
2018-11-22T01:44:05.734Z,0.00
2018-11-22T01:45:05.605Z,0.00
2018-11-22T01:46:05.471Z,0.00
2018-11-22T01:47:05.339Z,0.00
2018-11-22T01:48:05.205Z,0.00
2018-11-22T01:49:05.075Z,0.00
2018-11-22T01:50:04.945Z,0.00
2018-11-22T01:51:04.815Z,0.00
2018-11-22T01:52:04.688Z,0.00
2018-11-22T01:53:04.549Z,0.00
2018-11-22T01:54:04.417Z,0.00
2018-11-22T01:55:04.287Z,0.00
2018-11-22T01:56:04.160Z,0.00
2018-11-22T01:57:04.022Z,0.00
2018-11-22T01:58:03.892Z,0.00
2018-11-22T01:59:03.761Z,0.00
2018-11-22T02:00:03.629Z,0.00
2018-11-22T02:01:03.498Z,0.00
2018-11-22T02:02:03.367Z,0.00
2018-11-22T02:03:03.234Z,0.00
2018-11-22T02:04:03.105Z,0.00
2018-11-22T02:05:02.972Z,0.00
2018-11-22T02:06:02.838Z,0.00
2018-11-22T02:07:02.709Z,0.00
2018-11-22T02:08:02.579Z,0.00
2018-11-22T02:09:02.447Z,0.00
2018-11-22T02:10:02.311Z,0.00
2018-11-22T02:11:02.188Z,0.00
2018-11-22T02:12:02.054Z,0.00
2018-11-22T02:13:01.921Z,0.00
2018-11-22T02:14:01.788Z,0.00
2018-11-22T02:15:01.656Z,0.00
2018-11-22T02:16:01.526Z,0.00
2018-11-22T02:17:01.394Z,0.00
2018-11-22T02:18:01.261Z,0.00
2018-11-22T02:19:01.130Z,0.00
2018-11-22T02:20:00.997Z,0.00
2018-11-22T02:21:00.865Z,0.00
2018-11-22T02:22:00.735Z,0.00
2018-11-22T02:23:00.605Z,0.00
2018-11-22T02:24:00.472Z,0.00
2018-11-22T02:25:00.344Z,0.00
2018-11-22T02:26:00.209Z,0.00
2018-11-22T02:27:00.078Z,0.00
2018-11-22T02:27:59.947Z,0.00
2018-11-22T02:28:59.812Z,0.00
2018-11-22T02:29:59.682Z,0.00
2018-11-22T02:30:59.553Z,0.00
2018-11-22T02:31:59.421Z,0.00
2018-11-22T02:32:59.287Z,0.00
2018-11-22T02:33:59.158Z,0.00
2018-11-22T02:34:59.025Z,0.00
2018-11-22T02:35:58.894Z,0.00
2018-11-22T02:36:58.768Z,0.00
2018-11-22T02:37:58.632Z,0.00
2018-11-22T02:38:58.502Z,0.00
2018-11-22T02:39:58.375Z,0.00
2018-11-22T02:40:58.237Z,0.00
2018-11-22T02:41:58.105Z,0.00
2018-11-22T02:42:57.972Z,0.00
2018-11-22T02:43:57.841Z,0.00
2018-11-22T02:44:57.710Z,0.00
2018-11-22T02:45:57.581Z,0.00
2018-11-22T02:46:57.451Z,0.00
2018-11-22T02:47:57.316Z,0.00
2018-11-22T02:48:57.184Z,0.00
2018-11-22T02:49:57.052Z,0.00
2018-11-22T02:50:56.923Z,0.00
2018-11-22T02:51:56.787Z,0.00
2018-11-22T02:52:56.665Z,0.00
2018-11-22T02:53:56.526Z,0.00
2018-11-22T02:54:56.397Z,0.00
2018-11-22T02:55:56.267Z,0.00
2018-11-22T02:56:56.134Z,0.00
2018-11-22T02:57:56.000Z,0.00
2018-11-22T02:58:55.868Z,0.00
2018-11-22T02:59:55.737Z,0.00
2018-11-22T03:00:55.607Z,0.00
2018-11-22T03:01:55.474Z,0.00
2018-11-22T03:02:55.345Z,0.00
2018-11-22T03:03:55.210Z,0.00
2018-11-22T03:04:55.081Z,0.00
2018-11-22T03:05:54.947Z,0.00
2018-11-22T03:06:54.814Z,0.00
2018-11-22T03:07:54.688Z,0.00
2018-11-22T03:08:54.554Z,0.00
2018-11-22T03:09:54.422Z,0.00
2018-11-22T03:10:54.294Z,0.00
2018-11-22T03:11:54.158Z,0.00
2018-11-22T03:12:54.026Z,0.00
2018-11-22T03:13:53.898Z,0.00
2018-11-22T03:14:53.767Z,0.00
2018-11-22T03:15:53.636Z,0.00
2018-11-22T03:16:53.501Z,0.00
2018-11-22T03:17:53.372Z,0.00
2018-11-22T03:18:53.241Z,0.00
2018-11-22T03:19:53.108Z,0.00
2018-11-22T03:20:52.975Z,0.00
2018-11-22T03:21:52.847Z,0.00
2018-11-22T03:22:52.716Z,0.00
2018-11-22T03:23:52.581Z,0.00
2018-11-22T03:24:52.451Z,0.00
2018-11-22T03:25:52.321Z,0.00
2018-11-22T03:26:52.188Z,0.00
2018-11-22T03:27:52.056Z,0.00
2018-11-22T03:28:51.925Z,0.00
2018-11-22T03:29:51.795Z,0.00
2018-11-22T03:30:51.663Z,0.00
2018-11-22T03:31:51.530Z,0.00
2018-11-22T03:32:51.404Z,0.00
2018-11-22T03:33:51.267Z,0.00
2018-11-22T03:34:51.137Z,0.00
2018-11-22T03:35:51.005Z,0.00
2018-11-22T03:36:50.876Z,0.00
2018-11-22T03:37:50.742Z,0.00
2018-11-22T03:38:50.613Z,0.00
2018-11-22T03:39:50.483Z,0.00
2018-11-22T03:40:50.349Z,0.00
2018-11-22T03:41:50.220Z,0.00
2018-11-22T03:42:50.086Z,0.00
2018-11-22T03:43:49.953Z,0.00
2018-11-22T03:44:49.822Z,0.00
2018-11-22T03:45:49.692Z,0.00
2018-11-22T03:46:49.558Z,0.00
2018-11-22T03:47:49.429Z,0.00
2018-11-22T03:48:49.297Z,0.00
2018-11-22T03:49:50.511Z,0.00
2018-11-22T03:50:49.035Z,0.00
2018-11-22T03:51:48.902Z,0.00
2018-11-22T03:52:48.773Z,0.00
2018-11-22T03:53:48.641Z,0.00
2018-11-22T03:54:48.510Z,0.00
2018-11-22T03:55:48.382Z,0.00
2018-11-22T03:56:48.248Z,0.00
2018-11-22T03:57:48.115Z,0.00
2018-11-22T03:58:47.984Z,0.00
2018-11-22T03:59:47.857Z,0.00
2018-11-22T04:00:47.720Z,0.00
2018-11-22T04:01:47.591Z,0.00
2018-11-22T04:02:47.464Z,0.00
2018-11-22T04:03:47.329Z,0.00
2018-11-22T04:04:47.196Z,0.00
2018-11-22T04:05:47.066Z,0.00
2018-11-22T04:06:46.935Z,0.00
2018-11-22T04:07:46.801Z,0.00
2018-11-22T04:08:46.671Z,0.00
2018-11-22T04:09:46.541Z,0.00
2018-11-22T04:10:46.416Z,0.00
2018-11-22T04:11:46.277Z,0.00
2018-11-22T04:12:46.147Z,0.00
2018-11-22T04:13:46.016Z,0.00
2018-11-22T04:14:45.889Z,0.00
2018-11-22T04:15:45.753Z,0.00
2018-11-22T04:16:45.620Z,0.00
2018-11-22T04:17:45.489Z,0.00
2018-11-22T04:18:45.361Z,0.00
2018-11-22T04:19:45.228Z,0.00
2018-11-22T04:20:45.099Z,0.00
2018-11-22T04:21:44.965Z,0.00
2018-11-22T04:22:44.837Z,0.00
2018-11-22T04:23:44.704Z,0.00
2018-11-22T04:24:44.572Z,0.00
2018-11-22T04:25:44.443Z,0.00
2018-11-22T04:26:44.311Z,0.00
2018-11-22T04:27:44.216Z,0.00
2018-11-22T04:28:44.049Z,0.00
2018-11-22T04:29:43.957Z,0.00
2018-11-22T04:30:43.788Z,0.00
2018-11-22T04:31:43.655Z,0.00
2018-11-22T04:32:43.526Z,0.00
2018-11-22T04:33:43.393Z,0.00
2018-11-22T04:34:43.260Z,0.00
2018-11-22T04:35:43.129Z,0.00
2018-11-22T04:36:42.999Z,0.00
2018-11-22T04:37:42.870Z,0.00
2018-11-22T04:38:42.738Z,0.00
2018-11-22T04:39:42.664Z,0.00
2018-11-22T04:40:42.477Z,0.00
2018-11-22T04:41:42.410Z,0.00
2018-11-22T04:42:42.219Z,0.00
2018-11-22T04:43:42.081Z,0.00
2018-11-22T04:44:41.947Z,0.00
2018-11-22T04:45:41.825Z,0.00
2018-11-22T04:46:41.690Z,0.00
2018-11-22T04:47:41.556Z,0.00
2018-11-22T04:48:41.430Z,0.00
2018-11-22T04:49:41.296Z,0.00
2018-11-22T04:50:41.169Z,0.00
2018-11-22T04:51:41.032Z,0.00
2018-11-22T04:52:40.901Z,0.00
2018-11-22T04:53:40.772Z,0.00
2018-11-22T04:54:40.639Z,0.00
2018-11-22T04:55:40.505Z,0.00
2018-11-22T04:56:40.375Z,0.00
2018-11-22T04:57:40.245Z,0.00
2018-11-22T04:58:40.115Z,0.00
2018-11-22T04:59:39.980Z,0.00
2018-11-22T05:00:39.851Z,0.00
2018-11-22T05:01:39.721Z,0.00
2018-11-22T05:02:40.288Z,0.00
2018-11-22T05:03:39.459Z,0.00
2018-11-22T05:04:39.330Z,0.00
2018-11-22T05:05:39.197Z,0.00
2018-11-22T05:06:39.065Z,0.00
2018-11-22T05:07:38.936Z,0.00
2018-11-22T05:08:38.814Z,0.00
2018-11-22T05:09:38.674Z,0.00
2018-11-22T05:10:38.541Z,0.00
2018-11-22T05:11:38.412Z,0.00
2018-11-22T05:12:38.275Z,0.00
2018-11-22T05:13:38.146Z,0.00
2018-11-22T05:14:38.015Z,0.00
2018-11-22T05:15:37.882Z,0.00
2018-11-22T05:16:37.750Z,0.00
2018-11-22T05:17:37.618Z,0.00
2018-11-22T05:18:37.490Z,0.00
2018-11-22T05:19:37.362Z,0.00
2018-11-22T05:20:37.227Z,0.00
2018-11-22T05:21:37.093Z,0.00
2018-11-22T05:22:36.964Z,0.00
2018-11-22T05:23:36.838Z,0.00
2018-11-22T05:24:36.700Z,0.00
2018-11-22T05:25:36.569Z,0.00
2018-11-22T05:26:36.439Z,0.00
2018-11-22T05:27:36.305Z,0.00
2018-11-22T05:28:36.188Z,0.00
2018-11-22T05:29:36.044Z,0.00
2018-11-22T05:30:35.913Z,0.00
2018-11-22T05:31:35.781Z,0.00
2018-11-22T05:32:35.654Z,0.00
2018-11-22T05:33:35.523Z,0.00
2018-11-22T05:34:35.389Z,0.00
2018-11-22T05:35:35.256Z,0.00
2018-11-22T05:36:35.123Z,0.00
2018-11-22T05:37:34.993Z,0.00
2018-11-22T05:38:34.862Z,0.00
2018-11-22T05:39:34.730Z,0.00
2018-11-22T05:40:34.602Z,0.00
2018-11-22T05:41:34.469Z,0.00
2018-11-22T05:42:34.338Z,0.00
2018-11-22T05:43:34.205Z,0.00
2018-11-22T05:44:34.073Z,0.00
2018-11-22T05:45:33.943Z,0.00
2018-11-22T05:46:33.813Z,0.00
2018-11-22T05:47:33.680Z,0.00
2018-11-22T05:48:33.548Z,0.00
2018-11-22T05:49:33.417Z,0.00
2018-11-22T05:50:33.287Z,0.00
2018-11-22T05:51:33.153Z,0.00
2018-11-22T05:52:33.026Z,0.00
2018-11-22T05:53:32.897Z,0.00
2018-11-22T05:54:32.764Z,0.00
2018-11-22T05:55:32.628Z,0.00
2018-11-22T05:56:32.495Z,0.00
2018-11-22T05:57:32.365Z,0.00
2018-11-22T05:58:32.231Z,0.00
2018-11-22T05:59:32.101Z,0.00
2018-11-22T06:00:31.970Z,0.00
2018-11-22T06:01:31.940Z,0.00
2018-11-22T06:02:31.708Z,0.00
2018-11-22T06:03:31.573Z,0.00
2018-11-22T06:04:31.444Z,0.00
2018-11-22T06:05:31.311Z,0.00
2018-11-22T06:06:31.178Z,0.00
2018-11-22T06:07:31.048Z,4.00
2018-11-22T06:08:30.917Z,4.00
2018-11-22T06:09:30.784Z,0.00
2018-11-22T06:10:30.721Z,4.00
2018-11-22T06:11:30.525Z,4.00
2018-11-22T06:12:30.390Z,4.00
2018-11-22T06:13:30.259Z,4.00
2018-11-22T06:14:30.128Z,4.00
2018-11-22T06:15:29.994Z,8.00
2018-11-22T06:16:29.864Z,8.00
2018-11-22T06:17:29.731Z,12.00
2018-11-22T06:18:29.602Z,12.00
2018-11-22T06:19:29.491Z,12.00
2018-11-22T06:20:29.336Z,12.00
2018-11-22T06:21:29.224Z,12.00
2018-11-22T06:22:29.079Z,16.00
2018-11-22T06:23:29.013Z,20.00
2018-11-22T06:24:28.811Z,24.00
2018-11-22T06:25:28.680Z,28.00
2018-11-22T06:26:28.548Z,28.00
2018-11-22T06:27:28.416Z,32.00
2018-11-22T06:28:28.287Z,40.00
2018-11-22T06:29:28.155Z,40.00
2018-11-22T06:30:28.027Z,44.00
2018-11-22T06:31:27.893Z,48.00
2018-11-22T06:32:27.762Z,56.00
2018-11-22T06:33:27.630Z,60.00
2018-11-22T06:34:27.498Z,64.00
2018-11-22T06:35:27.367Z,68.00
2018-11-22T06:36:27.242Z,76.00
2018-11-22T06:37:27.104Z,84.00
2018-11-22T06:38:26.972Z,92.00
2018-11-22T06:39:26.841Z,96.00
2018-11-22T06:40:26.713Z,108.00
2018-11-22T06:41:26.582Z,112.00
2018-11-22T06:42:26.448Z,120.00
2018-11-22T06:43:26.318Z,132.00
2018-11-22T06:44:26.185Z,144.00
2018-11-22T06:45:26.055Z,148.00
2018-11-22T06:46:25.924Z,156.00
2018-11-22T06:47:25.792Z,168.00
2018-11-22T06:48:25.660Z,176.00
2018-11-22T06:49:25.532Z,188.00
2018-11-22T06:50:25.400Z,192.00
2018-11-22T06:51:25.267Z,200.00
2018-11-22T06:52:25.141Z,212.00
2018-11-22T06:53:25.007Z,220.00
2018-11-22T06:54:24.880Z,236.00
2018-11-22T06:55:24.743Z,248.00
2018-11-22T06:56:24.612Z,256.00
2018-11-22T06:57:24.482Z,268.00
2018-11-22T06:58:24.348Z,284.00
2018-11-22T06:59:24.257Z,296.00
2018-11-22T07:00:24.088Z,312.00
2018-11-22T07:01:23.955Z,324.00
2018-11-22T07:02:23.824Z,344.00
2018-11-22T07:03:23.692Z,356.00
2018-11-22T07:04:23.562Z,364.00
2018-11-22T07:05:23.432Z,376.00
2018-11-22T07:06:23.300Z,388.00
2018-11-22T07:07:23.170Z,404.00
2018-11-22T07:08:23.037Z,420.00
2018-11-22T07:09:22.906Z,432.00
2018-11-22T07:10:22.775Z,444.00
2018-11-22T07:11:22.642Z,460.00
2018-11-22T07:12:22.514Z,472.00
2018-11-22T07:13:22.385Z,476.00
2018-11-22T07:14:22.252Z,492.00
2018-11-22T07:15:22.119Z,500.00
2018-11-22T07:16:21.988Z,508.00
2018-11-22T07:17:21.859Z,512.00
2018-11-22T07:18:21.728Z,524.00
2018-11-22T07:19:21.595Z,536.00
2018-11-22T07:20:21.466Z,548.00
2018-11-22T07:21:21.333Z,560.00
2018-11-22T07:22:21.203Z,576.00
2018-11-22T07:23:21.073Z,592.00
2018-11-22T07:24:20.942Z,608.00
2018-11-22T07:25:20.813Z,628.00
2018-11-22T07:26:20.685Z,644.00
2018-11-22T07:27:20.551Z,660.00
2018-11-22T07:28:20.418Z,672.00
2018-11-22T07:29:20.287Z,680.00
2018-11-22T07:30:20.160Z,688.00
2018-11-22T07:31:20.024Z,700.00
2018-11-22T07:32:19.894Z,704.00
2018-11-22T07:33:19.767Z,704.00
2018-11-22T07:34:19.631Z,708.00
2018-11-22T07:35:19.504Z,708.00
2018-11-22T07:36:19.370Z,708.00
2018-11-22T07:37:19.244Z,712.00
2018-11-22T07:38:19.109Z,720.00
2018-11-22T07:39:18.976Z,728.00
2018-11-22T07:40:18.847Z,744.00
2018-11-22T07:41:18.717Z,756.00
2018-11-22T07:42:18.584Z,764.00
2018-11-22T07:43:18.452Z,764.00
2018-11-22T07:44:18.323Z,760.00
2018-11-22T07:45:18.191Z,756.00
2018-11-22T07:46:18.060Z,756.00
2018-11-22T07:47:17.927Z,760.00
2018-11-22T07:48:17.797Z,764.00
2018-11-22T07:49:17.669Z,772.00
2018-11-22T07:50:17.540Z,788.00
2018-11-22T07:51:17.404Z,808.00
2018-11-22T07:52:17.273Z,832.00
2018-11-22T07:53:17.142Z,856.00
2018-11-22T07:54:17.011Z,876.00
2018-11-22T07:55:16.880Z,896.00
2018-11-22T07:56:16.749Z,900.00
2018-11-22T07:57:16.643Z,916.00
2018-11-22T07:58:16.527Z,932.00
2018-11-22T07:59:16.358Z,956.00
2018-11-22T08:00:16.227Z,984.00
2018-11-22T08:01:16.095Z,1012.00
2018-11-22T08:02:15.965Z,1032.00
2018-11-22T08:03:15.833Z,1056.00
2018-11-22T08:04:15.702Z,1088.00
2018-11-22T08:05:15.571Z,1120.00
2018-11-22T08:06:15.441Z,1148.00
2018-11-22T08:07:15.310Z,1176.00
2018-11-22T08:08:15.182Z,1204.00
2018-11-22T08:09:15.048Z,1216.00
2018-11-22T08:10:14.919Z,1228.00
2018-11-22T08:11:14.791Z,1244.00
2018-11-22T08:12:14.657Z,1260.00
2018-11-22T08:13:14.530Z,1272.00
2018-11-22T08:14:14.396Z,1288.00
2018-11-22T08:15:14.268Z,1300.00
2018-11-22T08:16:14.134Z,1288.00
2018-11-22T08:17:14.003Z,1276.00
2018-11-22T08:18:13.876Z,1280.00
2018-11-22T08:19:13.743Z,1284.00
2018-11-22T08:20:13.612Z,1292.00
2018-11-22T08:21:13.490Z,1276.00
2018-11-22T08:22:13.353Z,1248.00
2018-11-22T08:23:13.220Z,1200.00
2018-11-22T08:24:13.090Z,1140.00
2018-11-22T08:25:12.960Z,1084.00
2018-11-22T08:26:12.843Z,1036.00
2018-11-22T08:27:12.699Z,1000.00
2018-11-22T08:28:12.568Z,976.00
2018-11-22T08:29:12.441Z,960.00
2018-11-22T08:30:12.309Z,936.00
2018-11-22T08:31:12.178Z,908.00
2018-11-22T08:32:12.046Z,868.00
2018-11-22T08:33:11.916Z,824.00
2018-11-22T08:34:11.789Z,796.00
2018-11-22T08:35:11.654Z,780.00
2018-11-22T08:36:11.526Z,776.00
2018-11-22T08:37:11.396Z,772.00
2018-11-22T08:38:11.265Z,760.00
2018-11-22T08:39:11.133Z,748.00
2018-11-22T08:40:11.002Z,736.00
2018-11-22T08:41:10.871Z,724.00
2018-11-22T08:42:11.538Z,720.00
2018-11-22T08:43:10.611Z,704.00
2018-11-22T08:44:10.481Z,680.00
2018-11-22T08:45:10.351Z,652.00
2018-11-22T08:46:10.221Z,628.00
2018-11-22T08:47:12.187Z,608.00
2018-11-22T08:48:09.963Z,600.00
2018-11-22T08:49:09.831Z,596.00
2018-11-22T08:50:09.699Z,596.00
2018-11-22T08:51:09.571Z,592.00
2018-11-22T08:52:09.473Z,592.00
2018-11-22T08:53:09.311Z,588.00
2018-11-22T08:54:09.179Z,588.00
2018-11-22T08:55:09.048Z,584.00
2018-11-22T08:56:08.915Z,588.00
2018-11-22T08:57:08.785Z,592.00
2018-11-22T08:58:08.657Z,596.00
2018-11-22T08:59:08.522Z,604.00
2018-11-22T09:00:08.397Z,608.00
2018-11-22T09:01:08.264Z,624.00
2018-11-22T09:02:08.133Z,652.00
2018-11-22T09:03:08.002Z,688.00
2018-11-22T09:04:07.876Z,740.00
2018-11-22T09:05:07.741Z,796.00
2018-11-22T09:06:07.610Z,852.00
2018-11-22T09:07:07.492Z,936.00
2018-11-22T09:08:07.356Z,996.00
2018-11-22T09:09:07.218Z,1008.00
2018-11-22T09:10:07.088Z,1012.00
2018-11-22T09:11:06.957Z,1036.00
2018-11-22T09:12:06.827Z,1128.00
2018-11-22T09:13:06.699Z,1240.00
2018-11-22T09:14:06.566Z,1332.00
2018-11-22T09:15:06.433Z,1380.00
2018-11-22T09:16:06.303Z,1392.00
2018-11-22T09:17:06.176Z,1404.00
2018-11-22T09:18:06.043Z,1428.00
2018-11-22T09:19:05.912Z,1440.00
2018-11-22T09:20:05.784Z,1448.00
2018-11-22T09:21:05.654Z,1464.00
2018-11-22T09:22:05.522Z,1476.00
2018-11-22T09:23:05.390Z,1488.00
2018-11-22T09:24:05.261Z,1404.00
2018-11-22T09:25:05.131Z,1484.00
2018-11-22T09:26:05.016Z,1548.00
2018-11-22T09:27:04.876Z,1584.00
2018-11-22T09:28:04.743Z,1624.00
2018-11-22T09:29:04.613Z,1672.00
2018-11-22T09:30:04.486Z,1716.00
2018-11-22T09:31:04.351Z,1740.00
2018-11-22T09:32:04.223Z,1760.00
2018-11-22T09:33:04.104Z,1776.00
2018-11-22T09:34:03.963Z,1844.00
2018-11-22T09:35:03.852Z,1936.00
2018-11-22T09:36:03.702Z,2012.00
2018-11-22T09:37:03.573Z,2072.00
2018-11-22T09:38:03.445Z,2116.00
2018-11-22T09:39:03.314Z,2164.00
2018-11-22T09:40:03.188Z,2220.00
2018-11-22T09:41:03.056Z,2248.00
2018-11-22T09:42:02.930Z,2384.00
2018-11-22T09:43:02.795Z,2392.00
2018-11-22T09:44:02.670Z,2360.00
2018-11-22T09:45:02.539Z,2484.00
2018-11-22T09:46:02.414Z,2520.00
2018-11-22T09:47:02.282Z,2540.00
2018-11-22T09:48:02.152Z,2548.00
2018-11-22T09:49:02.031Z,2552.00
2018-11-22T09:50:01.899Z,2472.00
2018-11-22T09:51:01.767Z,2648.00
2018-11-22T09:52:01.638Z,2676.00
2018-11-22T09:53:01.512Z,2704.00
2018-11-22T09:54:01.382Z,2704.00
2018-11-22T09:55:01.253Z,2716.00
2018-11-22T09:56:01.124Z,2748.00
2018-11-22T09:57:00.998Z,2768.00
2018-11-22T09:58:01.815Z,2784.00
2018-11-22T09:59:00.743Z,2792.00
2018-11-22T10:00:00.614Z,2820.00
2018-11-22T10:01:00.483Z,2848.00
2018-11-22T10:02:00.357Z,2880.00
2018-11-22T10:03:00.246Z,2908.00
2018-11-22T10:04:00.101Z,2916.00
2018-11-22T10:05:00.289Z,2940.00
2018-11-22T10:05:59.846Z,2960.00
2018-11-22T10:06:59.720Z,2976.00
2018-11-22T10:07:59.591Z,2996.00
2018-11-22T10:08:59.467Z,3024.00
2018-11-22T10:09:59.337Z,3052.00
2018-11-22T10:10:59.208Z,3076.00
2018-11-22T10:11:59.081Z,3084.00
2018-11-22T10:12:58.954Z,3044.00
2018-11-22T10:13:58.827Z,1740.00
2018-11-22T10:14:58.699Z,1820.00
2018-11-22T10:15:58.583Z,2620.00
2018-11-22T10:16:58.481Z,2508.00
2018-11-22T10:17:58.322Z,2080.00
2018-11-22T10:18:58.192Z,2700.00
2018-11-22T10:19:58.066Z,2696.00
2018-11-22T10:20:57.938Z,2024.00
2018-11-22T10:21:57.817Z,2392.00
2018-11-22T10:22:57.685Z,2704.00
2018-11-22T10:23:57.596Z,2504.00
2018-11-22T10:24:57.430Z,2384.00
2018-11-22T10:25:57.302Z,1972.00
2018-11-22T10:26:57.175Z,2696.00
2018-11-22T10:27:57.052Z,2780.00
2018-11-22T10:28:56.924Z,2600.00
2018-11-22T10:29:56.798Z,2296.00
2018-11-22T10:30:56.671Z,1904.00
2018-11-22T10:31:56.547Z,2184.00
2018-11-22T10:32:56.416Z,2848.00
2018-11-22T10:33:56.294Z,2476.00
2018-11-22T10:34:56.164Z,1452.00
2018-11-22T10:35:56.036Z,1808.00
2018-11-22T10:36:55.913Z,2524.00
2018-11-22T10:37:55.918Z,2484.00
2018-11-22T10:38:55.661Z,2428.00
2018-11-22T10:39:55.535Z,2372.00
2018-11-22T10:40:55.409Z,2348.00
2018-11-22T10:41:55.283Z,2352.00
2018-11-22T10:42:55.155Z,2380.00
2018-11-22T10:43:55.040Z,2388.00
2018-11-22T10:44:54.906Z,2404.00
2018-11-22T10:45:54.782Z,2448.00
2018-11-22T10:46:54.657Z,2516.00
2018-11-22T10:47:54.527Z,2560.00
2018-11-22T10:48:54.401Z,2584.00
2018-11-22T10:49:54.276Z,2580.00
2018-11-22T10:50:54.150Z,2568.00
2018-11-22T10:51:54.027Z,2564.00
2018-11-22T10:52:53.898Z,2528.00
2018-11-22T10:53:53.773Z,2472.00
2018-11-22T10:54:53.646Z,2408.00
2018-11-22T10:55:53.520Z,2392.00
2018-11-22T10:56:53.394Z,2384.00
2018-11-22T10:57:53.932Z,2388.00
2018-11-22T10:58:53.141Z,2396.00
2018-11-22T10:59:53.016Z,2400.00
2018-11-22T11:00:52.891Z,2396.00
2018-11-22T11:01:52.773Z,2456.00
2018-11-22T11:02:52.638Z,2460.00
2018-11-22T11:03:52.512Z,2468.00
2018-11-22T11:04:52.389Z,2508.00
2018-11-22T11:05:52.261Z,2548.00
2018-11-22T11:06:52.135Z,2576.00
2018-11-22T11:07:52.009Z,2576.00
2018-11-22T11:08:51.888Z,2592.00
2018-11-22T11:09:51.757Z,2592.00
2018-11-22T11:10:51.629Z,2584.00
2018-11-22T11:11:51.504Z,2556.00
2018-11-22T11:12:51.384Z,2532.00
2018-11-22T11:13:51.254Z,2504.00
2018-11-22T11:14:51.126Z,2500.00
2018-11-22T11:15:50.999Z,2292.00
2018-11-22T11:16:50.873Z,2288.00
2018-11-22T11:17:50.751Z,1824.00
2018-11-22T11:18:50.624Z,2568.00
2018-11-22T11:19:50.498Z,2568.00
2018-11-22T11:20:50.369Z,2536.00
2018-11-22T11:21:50.244Z,2520.00
2018-11-22T11:22:50.118Z,2504.00
2018-11-22T11:23:49.991Z,2504.00
2018-11-22T11:24:49.866Z,2524.00
2018-11-22T11:25:49.738Z,2568.00
2018-11-22T11:26:49.644Z,2264.00
2018-11-22T11:27:49.487Z,1480.00
2018-11-22T11:28:49.360Z,1440.00
2018-11-22T11:29:49.236Z,1332.00
2018-11-22T11:30:49.109Z,1612.00
2018-11-22T11:31:48.981Z,1544.00
2018-11-22T11:32:48.858Z,1168.00
2018-11-22T11:33:48.730Z,1720.00
2018-11-22T11:34:48.607Z,1264.00
2018-11-22T11:35:48.478Z,1160.00
2018-11-22T11:36:48.351Z,1208.00
2018-11-22T11:37:48.227Z,1876.00
2018-11-22T11:38:48.102Z,1604.00
2018-11-22T11:39:47.976Z,1368.00
2018-11-22T11:40:47.849Z,1816.00
2018-11-22T11:41:47.720Z,2440.00
2018-11-22T11:42:47.594Z,2384.00
2018-11-22T11:43:47.466Z,1904.00
2018-11-22T11:44:47.342Z,1532.00
2018-11-22T11:45:47.216Z,1396.00
2018-11-22T11:46:47.090Z,1460.00
2018-11-22T11:47:46.961Z,2076.00
2018-11-22T11:48:46.834Z,1864.00
2018-11-22T11:49:46.708Z,1836.00
2018-11-22T11:50:46.591Z,2128.00
2018-11-22T11:51:46.454Z,2644.00
2018-11-22T11:52:46.328Z,3992.00
2018-11-22T11:53:46.200Z,4504.00
2018-11-22T11:54:46.074Z,3784.00
2018-11-22T11:55:45.949Z,4428.00
2018-11-22T11:56:45.821Z,5268.00
2018-11-22T11:57:45.694Z,5184.00
2018-11-22T11:58:45.569Z,4956.00
2018-11-22T11:59:45.439Z,5076.00
2018-11-22T12:00:45.322Z,4904.00
2018-11-22T12:01:45.189Z,4984.00
2018-11-22T12:02:45.060Z,5076.00
2018-11-22T12:03:44.931Z,5200.00
2018-11-22T12:04:44.806Z,4704.00
2018-11-22T12:05:44.681Z,4792.00
2018-11-22T12:06:44.557Z,4184.00
2018-11-22T12:07:44.428Z,4260.00
2018-11-22T12:08:44.301Z,4436.00
2018-11-22T12:09:44.177Z,4380.00
2018-11-22T12:10:44.059Z,4772.00
2018-11-22T12:11:43.926Z,5244.00
2018-11-22T12:12:43.799Z,5524.00
2018-11-22T12:13:43.672Z,5744.00
2018-11-22T12:14:43.545Z,5800.00
2018-11-22T12:15:43.421Z,5824.00
2018-11-22T12:16:43.295Z,5552.00
2018-11-22T12:17:43.168Z,5156.00
2018-11-22T12:18:43.043Z,4916.00
2018-11-22T12:19:42.916Z,5240.00
2018-11-22T12:20:42.790Z,5592.00
2018-11-22T12:21:42.666Z,5344.00
2018-11-22T12:22:42.539Z,4544.00
2018-11-22T12:23:42.413Z,5412.00
2018-11-22T12:24:42.288Z,5752.00
2018-11-22T12:25:42.160Z,5764.00
2018-11-22T12:26:42.041Z,5816.00
2018-11-22T12:27:41.911Z,5808.00
2018-11-22T12:28:41.788Z,5648.00
2018-11-22T12:29:41.660Z,5508.00
2018-11-22T12:30:41.535Z,5256.00
2018-11-22T12:31:41.406Z,4336.00
2018-11-22T12:32:41.283Z,4268.00
2018-11-22T12:33:41.165Z,3564.00
2018-11-22T12:34:41.032Z,3536.00
2018-11-22T12:35:40.906Z,3916.00
2018-11-22T12:36:40.781Z,4308.00
2018-11-22T12:37:43.395Z,3508.00
2018-11-22T12:38:40.530Z,4240.00
2018-11-22T12:39:40.402Z,4320.00
2018-11-22T12:40:40.284Z,3836.00
2018-11-22T12:41:40.153Z,4180.00
2018-11-22T12:42:40.026Z,4052.00
2018-11-22T12:43:39.903Z,4580.00